createdAt,value
2022-08-20T00:04:03.473Z,21.00
2022-08-20T00:06:49.100Z,21.00
2022-08-20T00:12:22.760Z,21.10
2022-08-20T00:15:08.976Z,21.10
2022-08-20T00:17:55.596Z,20.40
2022-08-20T00:20:45.616Z,20.90
2022-08-20T00:26:18.526Z,21.40
2022-08-20T00:31:51.334Z,20.80
2022-08-20T00:34:37.300Z,21.00
2022-08-20T00:40:22.551Z,20.80
2022-08-20T00:43:39.925Z,20.80
2022-08-20T00:46:31.213Z,20.70
2022-08-20T00:49:31.036Z,20.90
2022-08-20T00:52:22.090Z,20.80
2022-08-20T00:55:09.407Z,20.80
2022-08-20T00:58:01.732Z,20.60
2022-08-20T01:00:49.752Z,20.70
2022-08-20T01:03:35.709Z,20.70
2022-08-20T01:06:21.196Z,20.70
2022-08-20T01:11:54.933Z,20.50
2022-08-20T01:14:45.769Z,20.80
2022-08-20T01:17:36.279Z,20.70
2022-08-20T01:20:28.523Z,19.10
2022-08-20T01:23:48.894Z,21.50
2022-08-20T01:26:39.441Z,20.70
2022-08-20T01:29:34.249Z,19.80
2022-08-20T01:35:07.238Z,21.60
2022-08-20T01:40:57.558Z,20.70
2022-08-20T01:43:45.293Z,21.50
2022-08-20T01:46:41.777Z,20.50
2022-08-20T01:49:34.811Z,20.60
2022-08-20T01:52:47.113Z,20.50
2022-08-20T01:58:19.126Z,20.40
2022-08-20T02:01:05.125Z,20.30
2022-08-20T02:03:51.248Z,20.60
2022-08-20T02:06:41.782Z,20.20
2022-08-20T02:09:43.356Z,20.40
2022-08-20T02:15:16.045Z,20.40
2022-08-20T02:18:08.019Z,20.50
2022-08-20T02:26:27.012Z,20.10
2022-08-20T02:29:14.668Z,19.90
2022-08-20T02:32:32.538Z,20.00
2022-08-20T02:35:08.740Z,20.30
2022-08-20T02:40:41.765Z,20.20
2022-08-20T02:43:27.750Z,20.00
2022-08-20T02:46:15.433Z,20.20
2022-08-20T02:49:01.151Z,20.20
2022-08-20T02:51:47.532Z,20.00
2022-08-20T02:54:33.359Z,20.00
2022-08-20T02:57:20.764Z,19.50
2022-08-20T03:00:14.058Z,20.00
2022-08-20T03:03:00.355Z,20.00
2022-08-20T03:05:46.153Z,20.00
2022-08-20T03:08:31.761Z,19.80
2022-08-20T03:14:03.812Z,19.90
2022-08-20T03:19:35.831Z,20.00
2022-08-20T03:27:54.965Z,19.10
2022-08-20T03:30:41.645Z,19.50
2022-08-20T03:39:11.637Z,19.80
2022-08-20T03:41:57.410Z,19.50
2022-08-20T03:50:22.652Z,19.60
2022-08-20T03:53:10.632Z,19.60
2022-08-20T03:56:03.237Z,19.60
2022-08-20T03:58:48.857Z,19.70
2022-08-20T04:07:25.949Z,19.50
2022-08-20T04:10:12.272Z,19.50
2022-08-20T04:15:45.739Z,19.50
2022-08-20T04:24:05.448Z,19.30
2022-08-20T04:29:37.753Z,19.30
2022-08-20T04:35:14.580Z,19.90
2022-08-20T04:38:02.492Z,19.20
2022-08-20T04:57:38.313Z,19.50
2022-08-20T05:05:56.927Z,21.10
2022-08-20T05:08:44.425Z,21.60
2022-08-20T05:11:36.049Z,21.80
2022-08-20T05:14:22.340Z,22.30
2022-08-20T05:17:08.511Z,23.50
2022-08-20T05:22:40.705Z,25.20
2022-08-20T05:25:30.662Z,25.60
2022-08-20T05:28:22.932Z,26.70
2022-08-20T05:31:09.592Z,26.90
2022-08-20T05:33:56.856Z,26.50
2022-08-20T05:36:49.664Z,26.60
2022-08-20T05:42:23.833Z,25.30
2022-08-20T05:47:57.311Z,25.10
2022-08-20T05:50:45.399Z,20.20
2022-08-20T05:56:17.037Z,25.10
2022-08-20T05:59:05.040Z,24.80
2022-08-20T06:01:51.148Z,24.80
2022-08-20T06:10:10.815Z,24.10
2022-08-20T06:18:28.995Z,24.40
2022-08-20T06:21:15.615Z,24.60
2022-08-20T06:26:47.954Z,24.80
2022-08-20T06:29:34.017Z,25.00
2022-08-20T06:32:28.834Z,25.20
2022-08-20T06:35:20.185Z,25.40
2022-08-20T06:38:06.367Z,25.80
2022-08-20T06:49:10.630Z,26.70
2022-08-20T06:54:45.688Z,27.50
2022-08-20T06:57:31.289Z,26.90
2022-08-20T07:00:20.041Z,27.00
2022-08-20T07:03:05.969Z,27.50
2022-08-20T07:05:51.720Z,27.20
2022-08-20T07:08:37.570Z,27.30
2022-08-20T07:11:28.697Z,27.10
2022-08-20T07:14:16.265Z,26.40
2022-08-20T07:17:06.756Z,27.10
2022-08-20T07:22:44.422Z,27.70
2022-08-20T07:25:31.858Z,28.10
2022-08-20T07:28:21.144Z,28.20
2022-08-20T07:31:25.205Z,28.20
2022-08-20T07:34:13.780Z,29.00
2022-08-20T07:37:00.639Z,28.70
2022-08-20T07:39:50.016Z,28.90
2022-08-20T07:42:36.721Z,28.80
2022-08-20T07:45:23.725Z,29.30
2022-08-20T07:48:12.365Z,28.50
2022-08-20T07:51:17.836Z,28.90
2022-08-20T07:54:04.384Z,29.20
2022-08-20T07:56:50.341Z,29.60
2022-08-20T07:59:36.593Z,29.70
2022-08-20T08:05:09.250Z,29.90
2022-08-20T08:07:55.858Z,30.50
2022-08-20T08:10:42.362Z,30.10
2022-08-20T08:13:32.773Z,30.00
2022-08-20T08:19:08.959Z,30.40
2022-08-20T08:21:57.398Z,30.90
2022-08-20T08:24:56.836Z,30.70
2022-08-20T08:27:45.737Z,30.10
2022-08-20T08:30:31.850Z,30.30
2022-08-20T08:33:30.951Z,31.10
2022-08-20T08:36:16.860Z,30.60
2022-08-20T08:41:51.594Z,30.80
2022-08-20T08:44:41.372Z,30.70
2022-08-20T08:47:31.586Z,30.70
2022-08-20T08:50:38.522Z,29.90
2022-08-20T08:53:43.423Z,30.90
2022-08-20T08:56:30.434Z,30.80
2022-08-20T08:59:16.075Z,31.50
2022-08-20T09:02:02.861Z,31.00
2022-08-20T09:04:51.480Z,31.20
2022-08-20T09:10:24.185Z,31.00
2022-08-20T09:15:56.118Z,31.10
2022-08-20T09:27:00.453Z,31.60
2022-08-20T09:29:46.229Z,30.80
2022-08-20T09:32:35.086Z,31.50
2022-08-20T09:38:07.287Z,31.10
2022-08-20T09:40:53.340Z,30.60
2022-08-20T09:52:01.328Z,30.50
2022-08-20T09:54:46.918Z,30.10
2022-08-20T09:57:32.761Z,30.30
2022-08-20T10:00:19.324Z,30.00
2022-08-20T10:08:38.180Z,30.50
2022-08-20T10:14:11.174Z,30.30
2022-08-20T10:17:00.684Z,30.70
2022-08-20T10:19:46.273Z,31.00
2022-08-20T10:22:32.844Z,31.00
2022-08-20T10:25:18.925Z,29.40
2022-08-20T10:28:05.709Z,30.80
2022-08-20T10:30:51.675Z,30.10
2022-08-20T10:33:37.392Z,30.80
2022-08-20T10:39:09.897Z,30.70
2022-08-20T10:41:55.585Z,30.30
2022-08-20T10:44:41.544Z,30.00
2022-08-20T10:47:30.396Z,30.30
2022-08-20T10:50:17.076Z,29.90
2022-08-20T10:53:02.933Z,30.60
2022-08-20T10:55:48.933Z,30.30
2022-08-20T10:58:39.612Z,30.40
2022-08-20T11:01:31.149Z,30.40
2022-08-20T11:04:18.706Z,30.30
2022-08-20T11:07:18.405Z,30.40
2022-08-20T11:10:09.332Z,30.90
2022-08-20T11:15:45.919Z,30.10
2022-08-20T11:18:32.937Z,30.20
2022-08-20T11:26:53.335Z,30.30
2022-08-20T11:29:39.313Z,30.60
2022-08-20T11:32:25.553Z,30.40
2022-08-20T11:35:40.639Z,31.10
2022-08-20T11:38:19.141Z,29.80
2022-08-20T11:44:10.415Z,30.20
2022-08-20T11:49:45.696Z,30.40
2022-08-20T11:52:31.629Z,31.30
2022-08-20T11:55:17.840Z,30.90
2022-08-20T12:03:36.634Z,31.20
2022-08-20T12:14:40.717Z,30.90
2022-08-20T12:17:29.872Z,31.30
2022-08-20T12:20:16.596Z,31.30
2022-08-20T12:23:02.393Z,30.90
2022-08-20T12:25:48.654Z,31.60
2022-08-20T12:28:34.137Z,30.70
2022-08-20T12:34:05.605Z,31.00
2022-08-20T12:37:00.182Z,31.20
2022-08-20T12:39:49.373Z,30.80
2022-08-20T12:42:35.196Z,31.50
2022-08-20T12:45:21.093Z,30.60
2022-08-20T12:48:12.605Z,30.90
2022-08-20T12:50:58.036Z,31.30
2022-08-20T12:53:43.612Z,31.50
2022-08-20T12:56:29.709Z,31.30
2022-08-20T12:59:15.594Z,30.10
2022-08-20T13:10:45.667Z,31.20
2022-08-20T13:13:31.663Z,31.80
2022-08-20T13:24:42.260Z,31.20
2022-08-20T13:27:28.291Z,30.50
2022-08-20T13:30:17.957Z,30.30
2022-08-20T13:38:36.286Z,31.50
2022-08-20T13:41:22.036Z,31.50
2022-08-20T13:44:07.917Z,31.20
2022-08-20T13:46:54.115Z,31.20
2022-08-20T13:52:26.813Z,31.10
2022-08-20T13:55:16.057Z,31.10
2022-08-20T13:58:06.343Z,31.10
2022-08-20T14:06:24.011Z,31.30
2022-08-20T14:17:36.602Z,31.00
2022-08-20T14:20:29.373Z,31.50
2022-08-20T14:23:17.889Z,31.10
2022-08-20T14:26:03.982Z,30.60
2022-08-20T14:34:21.825Z,30.90
2022-08-20T14:37:18.421Z,31.10
2022-08-20T14:40:07.941Z,31.10
2022-08-20T14:42:55.672Z,31.00
2022-08-20T14:48:28.248Z,30.70
2022-08-20T14:51:14.183Z,31.00
2022-08-20T15:02:19.004Z,31.20
2022-08-20T15:05:07.032Z,30.80
2022-08-20T15:07:53.734Z,30.40
2022-08-20T15:10:40.408Z,30.60
2022-08-20T15:13:26.420Z,31.20
2022-08-20T15:21:45.897Z,30.60
2022-08-20T15:27:22.756Z,29.60
2022-08-20T15:30:14.569Z,30.70
2022-08-20T15:33:01.079Z,31.10
2022-08-20T15:35:47.329Z,29.60
2022-08-20T15:46:51.474Z,30.50
2022-08-20T15:52:26.257Z,30.60
2022-08-20T15:55:15.662Z,33.10
2022-08-20T15:58:33.740Z,30.30
2022-08-20T16:01:31.617Z,31.00
2022-08-20T16:04:20.216Z,30.50
2022-08-20T16:07:14.536Z,30.40
2022-08-20T16:10:13.941Z,30.40
2022-08-20T16:13:06.207Z,30.30
2022-08-20T16:15:53.413Z,30.30
2022-08-20T16:18:40.845Z,29.90
2022-08-20T16:21:39.385Z,30.20
2022-08-20T16:27:45.485Z,30.20
2022-08-20T16:30:47.891Z,30.20
2022-08-20T16:34:04.281Z,30.40
2022-08-20T16:37:26.233Z,30.10
2022-08-20T16:40:30.604Z,30.70
2022-08-20T16:43:32.359Z,30.50
2022-08-20T16:46:21.404Z,30.40
2022-08-20T16:49:13.714Z,30.80
2022-08-20T16:52:01.154Z,30.00
2022-08-20T16:54:46.817Z,30.00
2022-08-20T16:57:32.840Z,29.80
2022-08-20T17:00:21.766Z,29.60
2022-08-20T17:03:33.382Z,29.90
2022-08-20T17:06:46.843Z,29.90
2022-08-20T17:09:43.432Z,29.80
2022-08-20T17:12:29.640Z,29.60
2022-08-20T17:15:20.931Z,30.30
2022-08-20T17:18:39.548Z,29.60
2022-08-20T17:24:19.588Z,29.60
2022-08-20T17:27:08.112Z,29.60
2022-08-20T17:30:04.851Z,29.90
2022-08-20T17:33:03.518Z,29.30
2022-08-20T17:35:53.904Z,29.30
2022-08-20T17:38:51.682Z,29.10
2022-08-20T17:41:37.693Z,29.00
2022-08-20T17:44:33.462Z,28.90
2022-08-20T17:47:26.567Z,28.90
2022-08-20T17:50:15.150Z,28.60
2022-08-20T17:53:23.396Z,29.40
2022-08-20T17:56:28.133Z,28.40
2022-08-20T17:59:59.431Z,28.50
2022-08-20T18:02:33.968Z,28.80
2022-08-20T18:05:21.219Z,28.10
2022-08-20T18:08:35.268Z,28.20
2022-08-20T18:11:40.244Z,28.30
2022-08-20T18:14:38.238Z,27.80
2022-08-20T18:17:33.128Z,28.00
2022-08-20T18:20:22.013Z,27.60
2022-08-20T18:23:49.212Z,27.70
2022-08-20T18:26:57.921Z,27.60
2022-08-20T18:29:48.122Z,27.60
2022-08-20T18:32:38.910Z,27.50
2022-08-20T18:35:34.863Z,27.40
2022-08-20T18:38:23.535Z,27.50
2022-08-20T18:41:14.785Z,27.10
2022-08-20T18:44:09.067Z,27.20
2022-08-20T18:46:58.799Z,27.00
2022-08-20T18:49:44.960Z,26.40
2022-08-20T18:52:33.796Z,26.30
2022-08-20T18:55:39.329Z,27.10
2022-08-20T18:58:36.464Z,26.60
2022-08-20T19:01:22.147Z,26.90
2022-08-20T19:04:28.393Z,26.50
2022-08-20T19:07:16.233Z,25.80
2022-08-20T19:10:35.227Z,26.30
2022-08-20T19:13:38.985Z,26.30
2022-08-20T19:16:45.921Z,26.10
2022-08-20T19:19:33.248Z,26.10
2022-08-20T19:22:21.075Z,25.40
2022-08-20T19:25:07.652Z,25.90
2022-08-20T19:27:53.822Z,26.00
2022-08-20T19:30:41.592Z,27.70
2022-08-20T19:33:29.789Z,25.50
2022-08-20T19:36:28.077Z,25.70
2022-08-20T19:39:18.725Z,25.70
2022-08-20T19:42:15.521Z,25.50
2022-08-20T19:45:04.001Z,25.20
2022-08-20T19:48:11.404Z,25.50
2022-08-20T19:51:20.482Z,25.20
2022-08-20T19:54:06.759Z,25.30
2022-08-20T19:57:03.663Z,25.20
2022-08-20T19:59:57.107Z,25.30
2022-08-20T20:02:43.859Z,25.80
2022-08-20T20:05:29.785Z,25.40
2022-08-20T20:08:15.741Z,25.10
2022-08-20T20:11:02.017Z,25.10
2022-08-20T20:16:35.267Z,25.50
2022-08-20T20:22:28.603Z,24.80
2022-08-20T20:25:19.669Z,24.80
2022-08-20T20:28:17.716Z,24.90
2022-08-20T20:31:13.489Z,24.80
2022-08-20T20:34:14.091Z,24.60
2022-08-20T20:37:49.307Z,24.60
2022-08-20T20:40:47.468Z,24.60
2022-08-20T20:43:35.086Z,24.50
2022-08-20T20:46:23.670Z,23.90
2022-08-20T20:49:09.520Z,24.50
2022-08-20T20:52:22.196Z,24.40
2022-08-20T20:55:32.701Z,24.30
2022-08-20T21:01:05.249Z,24.40
2022-08-20T21:03:50.949Z,24.40
2022-08-20T21:06:36.901Z,24.30
2022-08-20T21:09:24.390Z,24.30
2022-08-20T21:12:12.101Z,24.30
2022-08-20T21:14:58.210Z,24.30
2022-08-20T21:20:31.595Z,24.10
2022-08-20T21:26:04.909Z,23.90
2022-08-20T21:28:50.532Z,24.10
2022-08-20T21:31:43.813Z,24.40
2022-08-20T21:34:29.649Z,23.70
2022-08-20T21:37:16.721Z,24.10
2022-08-20T21:42:49.401Z,24.10
2022-08-20T21:45:35.404Z,24.00
2022-08-20T21:48:21.204Z,24.00
2022-08-20T21:51:07.148Z,24.20
2022-08-20T21:53:53.407Z,24.00
2022-08-20T21:56:39.516Z,24.00
2022-08-20T21:59:25.437Z,23.90
2022-08-20T22:02:11.292Z,23.80
2022-08-20T22:04:56.847Z,23.80
2022-08-20T22:07:43.391Z,23.60
2022-08-20T22:13:15.385Z,24.30
2022-08-20T22:16:03.955Z,23.70
2022-08-20T22:18:50.637Z,23.60
2022-08-20T22:24:24.081Z,23.80
2022-08-20T22:27:09.823Z,23.70
2022-08-20T22:33:00.815Z,23.50
2022-08-20T22:35:50.584Z,23.50
2022-08-20T22:38:36.232Z,23.50
2022-08-20T22:41:22.486Z,23.50
2022-08-20T22:44:08.571Z,23.50
2022-08-20T22:46:58.835Z,23.40
2022-08-20T22:49:44.618Z,23.40
2022-08-20T22:52:32.300Z,23.40
2022-08-20T22:55:18.582Z,23.50
2022-08-20T22:58:06.948Z,23.50
2022-08-20T23:00:55.471Z,23.50
2022-08-20T23:03:41.334Z,23.40
2022-08-20T23:06:29.618Z,23.50
2022-08-20T23:09:15.657Z,23.30
2022-08-20T23:12:08.181Z,23.30
2022-08-20T23:14:54.967Z,23.20
2022-08-20T23:20:27.058Z,23.20
2022-08-20T23:26:00.418Z,23.10
2022-08-20T23:28:46.441Z,23.10
2022-08-20T23:31:32.486Z,22.70
2022-08-20T23:34:18.144Z,23.00
2022-08-20T23:37:05.344Z,22.90
2022-08-20T23:39:51.149Z,23.00
2022-08-20T23:42:37.650Z,22.90
2022-08-20T23:50:55.405Z,22.80
2022-08-20T23:53:40.965Z,22.70
2022-08-20T23:56:26.884Z,22.70
2022-08-20T23:59:12.800Z,22.70
